Time;durP1;ratioP1;P1;durP2;ratioP2;P2;SDS_P1;SDS_P2;PMS_P1;PMS_P2;Temp;Humidity;BMP_temperature;BMP_pressure;BME280_temperature;BME280_humidity;BME280_pressure;Samples;Min_cycle;Max_cycle;Signal;HPM_P1;HPM_P2
2022/11/29 00:04:46;;;;;;;114.22;88.87;;;19.90;47.40;;;;;;4865759;55;21047;-31
2022/11/29 00:09:47;;;;;;;113.07;88.75;;;20.00;47.40;;;;;;4790650;55;21011;-42
2022/11/29 00:14:48;;;;;;;114.70;88.62;;;19.90;47.30;;;;;;4702933;55;21076;-34
2022/11/29 00:19:49;;;;;;;115.82;90.15;;;20.00;47.30;;;;;;4783169;55;21067;-45
2022/11/29 00:24:50;;;;;;;116.28;90.95;;;20.00;47.20;;;;;;4694133;59;21083;-39
2022/11/29 00:29:51;;;;;;;113.65;87.50;;;19.90;47.20;;;;;;5029460;55;21039;-38
2022/11/29 00:34:52;;;;;;;114.03;86.95;;;20.00;47.30;;;;;;5169462;55;21549;-33
2022/11/29 00:39:53;;;;;;;109.57;86.82;;;20.00;47.30;;;;;;4856684;55;21004;-45
2022/11/29 00:44:54;;;;;;;113.88;88.40;;;19.90;47.20;;;;;;4965147;55;21034;-42
2022/11/29 00:49:54;;;;;;;110.45;86.30;;;20.00;47.20;;;;;;4727439;55;21521;-32
2022/11/29 00:54:55;;;;;;;111.00;84.95;;;19.90;47.10;;;;;;4854525;55;21483;-32
2022/11/29 00:59:56;;;;;;;114.62;89.20;;;19.90;47.10;;;;;;4694088;59;21083;-34
2022/11/29 01:04:57;;;;;;;110.50;87.82;;;19.90;47.10;;;;;;4717683;55;21032;-47
2022/11/29 01:09:57;;;;;;;111.37;85.65;;;19.90;47.10;;;;;;4716389;55;20996;-34
2022/11/29 01:14:58;;;;;;;111.30;87.00;;;19.90;47.10;;;;;;4695331;59;21008;-30
2022/11/29 01:19:59;;;;;;;108.55;84.43;;;19.90;47.00;;;;;;4735934;55;21052;-30
2022/11/29 01:25:00;;;;;;;99.78;79.80;;;19.90;47.00;;;;;;4762209;55;21337;-31
2022/11/29 01:30:01;;;;;;;101.95;79.87;;;19.90;47.00;;;;;;4733046;55;21016;-31
2022/11/29 01:35:02;;;;;;;107.00;82.65;;;19.90;46.90;;;;;;4826864;55;21574;-30
2022/11/29 01:40:04;;;;;;;108.20;83.35;;;19.90;46.90;;;;;;4742214;55;21052;-31
2022/11/29 01:45:35;;;;;;;106.07;82.93;;;19.90;46.90;;;;;;4694756;59;21020;-31
2022/11/29 01:50:38;;;;;;;103.35;80.20;;;19.90;46.80;;;;;;5116176;55;21088;-33
2022/11/29 01:55:44;;;;;;;102.00;78.55;;;19.90;46.80;;;;;;4896259;55;21009;-37
2022/11/29 02:00:46;;;;;;;104.20;81.10;;;19.90;46.80;;;;;;4695843;55;21008;-33
2022/11/29 02:05:50;;;;;;;100.47;78.40;;;19.90;46.80;;;;;;4694444;59;21069;-48
2022/11/29 02:11:17;;;;;;;100.22;78.53;;;19.90;46.80;;;;;;5034257;55;21040;-34
2022/11/29 02:16:43;;;;;;;103.45;77.53;;;19.90;46.70;;;;;;4698293;55;21064;-44
2022/11/29 02:22:15;;;;;;;102.03;77.22;;;19.90;46.70;;;;;;4698939;55;21012;-36
2022/11/29 02:30:06;;;;;;;102.53;79.12;;;19.90;46.60;;;;;;4930557;55;21478;-31
2022/11/29 02:38:15;;;;;;;100.05;76.93;;;19.90;46.60;;;;;;4961328;55;21478;-38
2022/11/29 02:45:01;;;;;;;97.85;75.35;;;19.90;46.60;;;;;;4717333;55;21003;-43
2022/11/29 02:56:10;;;;;;;96.97;73.40;;;19.90;46.60;;;;;;4842304;55;21100;-43
2022/11/29 03:01:57;;;;;;;91.12;71.18;;;19.90;46.60;;;;;;4843951;55;21000;-40
2022/11/29 03:07:28;;;;;;;95.43;73.28;;;19.90;46.50;;;;;;5169739;55;21482;-46
2022/11/29 03:12:42;;;;;;;92.10;72.70;;;19.90;46.50;;;;;;4970986;55;21008;-38
2022/11/29 03:21:12;;;;;;;92.22;70.95;;;19.90;46.40;;;;;;4890376;55;21024;-41
2022/11/29 03:26:40;;;;;;;94.50;72.32;;;19.90;46.40;;;;;;5092866;55;21546;-47
2022/11/29 03:32:11;;;;;;;95.15;70.78;;;19.90;46.40;;;;;;4694724;59;21092;-43
2022/11/29 03:37:20;;;;;;;94.95;71.12;;;19.90;46.30;;;;;;5012349;55;21020;-41
2022/11/29 03:42:29;;;;;;;98.10;72.30;;;19.90;46.30;;;;;;5169827;55;21004;-35
2022/11/29 03:48:16;;;;;;;95.53;70.20;;;19.90;46.30;;;;;;5169216;55;21494;-35
2022/11/29 03:53:32;;;;;;;95.40;70.87;;;19.90;46.20;;;;;;5161515;55;20993;-31
2022/11/29 03:59:10;;;;;;;92.60;70.47;;;19.90;46.30;;;;;;4695377;55;21019;-42
2022/11/29 04:04:35;;;;;;;95.22;70.70;;;19.90;46.40;;;;;;4843556;55;21574;-31
2022/11/29 04:12:33;;;;;;;93.32;70.82;;;19.90;46.30;;;;;;4695068;59;21634;-41
2022/11/29 04:26:59;;;;;;;95.62;71.05;;;19.90;46.30;;;;;;4727931;55;21080;-44
2022/11/29 04:34:51;;;;;;;90.30;67.57;;;19.90;46.40;;;;;;4898013;55;21564;-44
2022/11/29 04:40:20;;;;;;;93.30;69.45;;;19.90;46.40;;;;;;5015832;55;21071;-44
2022/11/29 04:47:01;;;;;;;94.45;69.70;;;19.90;46.40;;;;;;4694628;55;21004;-49
2022/11/29 04:53:54;;;;;;;98.22;68.03;;;19.90;46.40;;;;;;4782885;55;21075;-45
2022/11/29 04:59:18;;;;;;;96.25;68.65;;;19.90;46.60;;;;;;4947498;55;21025;-43
2022/11/29 05:04:52;;;;;;;93.47;67.20;;;19.90;46.40;;;;;;5165922;55;21455;-32
2022/11/29 05:13:09;;;;;;;99.28;71.03;;;19.90;46.50;;;;;;5170001;55;21072;-47
2022/11/29 05:18:35;;;;;;;97.70;68.30;;;19.90;46.70;;;;;;4750666;55;21541;-49
2022/11/29 05:26:45;;;;;;;97.00;68.07;;;19.90;46.70;;;;;;4994223;55;21020;-48
2022/11/29 05:33:10;;;;;;;93.37;65.15;;;19.90;46.80;;;;;;4750747;55;21115;-38
2022/11/29 05:38:39;;;;;;;95.93;68.85;;;19.90;46.80;;;;;;4717342;55;21012;-46
2022/11/29 05:44:06;;;;;;;96.93;67.75;;;19.90;46.80;;;;;;4694755;57;21012;-46
2022/11/29 05:52:10;;;;;;;93.03;66.68;;;19.90;46.80;;;;;;4864861;55;21072;-40
2022/11/29 05:57:36;;;;;;;97.62;67.80;;;19.90;46.80;;;;;;4745376;55;21094;-45
2022/11/29 06:03:32;;;;;;;96.90;66.75;;;19.90;46.70;;;;;;4703720;55;21056;-35
2022/11/29 06:08:48;;;;;;;93.22;66.53;;;19.90;46.70;;;;;;4824102;55;21076;-45
2022/11/29 06:14:56;;;;;;;94.90;68.50;;;19.90;46.70;;;;;;4926436;55;21003;-43
2022/11/29 06:20:34;;;;;;;97.70;68.90;;;19.90;46.70;;;;;;4801600;55;20991;-49
2022/11/29 06:26:00;;;;;;;95.25;67.70;;;19.90;46.70;;;;;;4694730;56;21055;-43
2022/11/29 06:31:24;;;;;;;95.53;67.45;;;19.90;46.70;;;;;;5169432;55;21482;-38
2022/11/29 06:36:34;;;;;;;98.28;68.22;;;19.90;46.70;;;;;;4695185;55;21152;-40
2022/11/29 06:41:36;;;;;;;98.93;68.43;;;19.90;46.70;;;;;;4830848;55;21153;-44
2022/11/29 06:48:05;;;;;;;95.18;68.53;;;19.90;46.70;;;;;;5126813;55;21116;-44
2022/11/29 06:54:10;;;;;;;99.90;68.47;;;19.90;46.70;;;;;;4887202;55;21052;-43
2022/11/29 07:01:25;;;;;;;99.18;69.95;;;19.90;46.60;;;;;;4922973;55;21119;-39
2022/11/29 07:06:28;;;;;;;95.80;67.72;;;19.90;46.60;;;;;;5169231;55;21345;-34
2022/11/29 07:11:29;;;;;;;98.22;69.97;;;19.90;46.60;;;;;;4701992;55;21490;-42
2022/11/29 07:16:55;;;;;;;100.15;69.90;;;19.90;46.60;;;;;;5107656;55;21081;-41
2022/11/29 07:24:49;;;;;;;101.45;70.47;;;19.90;46.60;;;;;;4694908;59;21594;-43
2022/11/29 07:30:04;;;;;;;98.10;68.53;;;19.80;46.50;;;;;;4844550;55;21024;-38
2022/11/29 07:35:17;;;;;;;99.32;69.40;;;19.90;46.50;;;;;;4784655;55;21483;-33
2022/11/29 07:43:12;;;;;;;105.15;74.05;;;19.90;46.60;;;;;;4802943;55;21002;-36
2022/11/29 07:48:15;;;;;;;108.55;75.85;;;19.90;46.50;;;;;;5049204;55;21028;-43
2022/11/29 07:53:18;;;;;;;113.43;75.30;;;19.90;46.50;;;;;;4922231;55;21093;-44
2022/11/29 07:58:19;;;;;;;114.18;79.30;;;19.90;47.20;;;;;;4694555;59;21040;-43
2022/11/29 08:03:20;;;;;;;117.57;80.75;;;19.90;47.20;;;;;;4893864;55;21083;-43
2022/11/29 08:08:20;;;;;;;119.43;82.57;;;19.90;46.40;;;;;;4695023;55;21078;-34
2022/11/29 08:13:21;;;;;;;132.10;88.30;;;20.00;46.80;;;;;;4760962;55;21032;-27
2022/11/29 08:18:22;;;;;;;139.57;93.68;;;20.00;47.00;;;;;;4694351;59;21080;-35
2022/11/29 08:23:23;;;;;;;146.50;100.53;;;20.10;47.20;;;;;;4841206;55;21080;-26
2022/11/29 08:28:23;;;;;;;150.25;102.38;;;20.10;47.30;;;;;;4781211;55;21027;-30
2022/11/29 08:33:24;;;;;;;154.00;104.43;;;20.20;47.40;;;;;;4812222;55;21510;-29
2022/11/29 08:38:25;;;;;;;164.70;108.50;;;20.20;47.40;;;;;;4947026;55;21016;-36
2022/11/29 08:43:26;;;;;;;170.93;113.47;;;20.20;47.40;;;;;;4815027;55;21027;-39
2022/11/29 08:48:27;;;;;;;162.50;110.78;;;20.30;47.30;;;;;;4697813;55;21518;-35
2022/11/29 08:53:40;;;;;;;173.57;116.57;;;20.30;47.50;;;;;;4895264;55;21477;-35
2022/11/29 08:58:41;;;;;;;171.20;115.85;;;20.30;47.60;;;;;;4779885;55;21039;-45
2022/11/29 09:03:58;;;;;;;176.95;117.43;;;20.40;47.70;;;;;;5031668;55;21514;-34
2022/11/29 09:08:59;;;;;;;170.95;117.55;;;20.40;47.90;;;;;;4725544;55;21077;-48
2022/11/29 09:14:04;;;;;;;176.77;118.90;;;20.40;47.90;;;;;;4766899;55;21475;-47
2022/11/29 09:19:06;;;;;;;177.30;120.30;;;20.40;47.50;;;;;;4713235;55;21100;-41
2022/11/29 09:24:09;;;;;;;172.10;120.35;;;20.40;47.40;;;;;;4794183;55;21088;-49
2022/11/29 09:29:10;;;;;;;180.23;119.90;;;20.30;47.00;;;;;;4704347;55;21530;-42
2022/11/29 09:34:15;;;;;;;183.70;119.85;;;20.30;46.80;;;;;;4742952;55;21007;-48
2022/11/29 09:39:16;;;;;;;182.40;123.28;;;20.30;46.60;;;;;;4722674;55;21055;-43
2022/11/29 09:53:43;;;;;;;183.80;123.65;;;20.30;46.50;;;;;;4694034;59;21104;-48
2022/11/29 09:58:50;;;;;;;199.93;133.07;;;20.40;46.80;;;;;;4778843;55;21075;-30
2022/11/29 10:03:55;;;;;;;199.55;135.15;;;20.40;46.90;;;;;;4705334;55;21542;-46
2022/11/29 10:09:14;;;;;;;207.82;135.15;;;20.40;47.10;;;;;;4694264;59;21071;-45
2022/11/29 10:14:27;;;;;;;204.85;138.40;;;20.40;47.10;;;;;;4765897;55;20992;-47
2022/11/29 10:19:39;;;;;;;209.10;141.32;;;20.40;47.20;;;;;;4730541;55;21020;-45
2022/11/29 10:24:43;;;;;;;230.23;150.07;;;20.40;47.10;;;;;;4691108;59;21032;-49
2022/11/29 10:29:49;;;;;;;220.60;151.12;;;20.40;47.10;;;;;;4756533;55;21004;-41
2022/11/29 10:34:50;;;;;;;236.55;155.25;;;20.40;47.10;;;;;;4760174;55;21043;-44
2022/11/29 10:40:03;;;;;;;246.82;165.32;;;20.40;47.00;;;;;;4723937;55;21031;-29
2022/11/29 10:45:15;;;;;;;238.40;161.25;;;20.40;47.00;;;;;;4742793;55;21027;-35
2022/11/29 10:50:23;;;;;;;252.32;170.87;;;20.40;47.00;;;;;;4788923;55;21565;-27
2022/11/29 10:55:26;;;;;;;257.02;177.93;;;20.40;47.00;;;;;;4710428;55;21570;-34
2022/11/29 11:00:27;;;;;;;255.48;177.43;;;20.40;47.00;;;;;;4893577;55;21522;-31
2022/11/29 11:05:28;;;;;;;268.77;182.62;;;20.40;47.00;;;;;;4751635;55;21491;-28
2022/11/29 11:10:29;;;;;;;269.67;184.37;;;20.40;47.00;;;;;;4714609;55;21005;-30
2022/11/29 11:15:31;;;;;;;279.87;190.90;;;20.40;47.00;;;;;;4729255;55;21497;-30
2022/11/29 11:20:36;;;;;;;280.50;196.75;;;20.40;46.80;;;;;;4746480;55;20999;-34
2022/11/29 11:25:38;;;;;;;279.45;195.48;;;20.40;46.70;;;;;;4755570;55;21004;-36
2022/11/29 11:30:40;;;;;;;277.65;193.20;;;20.40;46.80;;;;;;4758262;55;21069;-29
2022/11/29 11:35:41;;;;;;;285.48;199.12;;;20.40;46.90;;;;;;4763741;55;21076;-42
2022/11/29 11:40:42;;;;;;;277.25;197.02;;;20.40;47.60;;;;;;4948768;55;21016;-33
2022/11/29 11:45:52;;;;;;;288.33;197.45;;;20.40;47.00;;;;;;4728471;55;21024;-29
2022/11/29 11:50:56;;;;;;;282.70;197.77;;;20.40;47.00;;;;;;4775897;55;21602;-27
2022/11/29 11:56:03;;;;;;;287.12;195.82;;;20.40;47.20;;;;;;4721778;55;21498;-30
2022/11/29 12:01:48;;;;;;;291.07;204.17;;;20.40;47.30;;;;;;4721704;55;21080;-41
2022/11/29 12:06:51;;;;;;;296.52;205.25;;;20.40;47.20;;;;;;4987604;55;21080;-39
2022/11/29 12:12:33;;;;;;;295.20;206.30;;;20.40;46.90;;;;;;4715902;55;21008;-36
2022/11/29 12:17:48;;;;;;;299.85;208.52;;;20.40;46.90;;;;;;4711327;55;21557;-38
2022/11/29 12:24:31;;;;;;;295.15;209.40;;;20.40;47.40;;;;;;4993538;55;21137;-28
2022/11/29 12:29:34;;;;;;;283.92;202.23;;;20.40;47.10;;;;;;4784093;55;21108;-37
2022/11/29 12:36:01;;;;;;;296.25;204.63;;;20.40;47.20;;;;;;4785745;55;21486;-33
2022/11/29 12:41:28;;;;;;;295.35;207.87;;;20.40;47.10;;;;;;4984587;55;21056;-27
2022/11/29 12:46:30;;;;;;;292.67;207.02;;;20.40;47.00;;;;;;5099818;55;21060;-31
2022/11/29 12:54:21;;;;;;;312.15;219.48;;;20.40;47.60;;;;;;4874795;55;21048;-27
2022/11/29 13:01:06;;;;;;;298.98;210.00;;;20.40;46.90;;;;;;4695322;55;21533;-39
2022/11/29 13:06:22;;;;;;;296.08;207.43;;;20.40;46.90;;;;;;4794431;55;21009;-35
2022/11/29 13:11:53;;;;;;;292.73;211.98;;;20.40;46.90;;;;;;4725810;55;20992;-38
2022/11/29 13:17:10;;;;;;;289.52;207.18;;;20.40;46.80;;;;;;4758862;55;21084;-40
2022/11/29 13:22:30;;;;;;;292.10;212.00;;;20.40;46.80;;;;;;4722717;55;21016;-27
2022/11/29 13:27:35;;;;;;;285.25;202.23;;;20.40;46.70;;;;;;4731387;55;21003;-38
2022/11/29 13:33:00;;;;;;;279.87;202.65;;;20.40;47.20;;;;;;5030130;55;20984;-31
2022/11/29 13:38:33;;;;;;;272.33;198.73;;;20.40;47.50;;;;;;4776223;55;21056;-31
2022/11/29 13:43:45;;;;;;;271.48;190.95;;;20.50;47.70;;;;;;4694987;59;21108;-32
2022/11/29 13:48:52;;;;;;;256.70;183.82;;;20.50;47.80;;;;;;4745350;55;21023;-35
2022/11/29 13:53:56;;;;;;;252.00;184.43;;;20.60;48.00;;;;;;4775793;55;21012;-31
2022/11/29 13:58:59;;;;;;;253.15;182.00;;;20.60;48.10;;;;;;4810908;55;21010;-29
2022/11/29 14:04:06;;;;;;;254.43;183.52;;;20.60;48.20;;;;;;4797021;55;21497;-31
2022/11/29 14:09:57;;;;;;;258.98;182.80;;;20.60;48.20;;;;;;4695016;59;20997;-28
2022/11/29 14:15:03;;;;;;;243.95;177.80;;;20.70;48.20;;;;;;4768956;55;21016;-27
2022/11/29 14:26:52;;;;;;;254.13;179.63;;;20.70;48.30;;;;;;4806850;55;21004;-30
2022/11/29 14:31:54;;;;;;;248.95;176.65;;;20.70;48.20;;;;;;4776594;55;20996;-34
2022/11/29 14:37:13;;;;;;;250.43;181.57;;;20.70;47.90;;;;;;4804485;55;21636;-30
2022/11/29 14:42:20;;;;;;;247.40;179.00;;;20.70;47.80;;;;;;4774650;55;21471;-40
2022/11/29 14:47:30;;;;;;;258.25;182.73;;;20.70;47.80;;;;;;4794176;55;21534;-34
2022/11/29 14:52:39;;;;;;;238.20;171.93;;;20.70;47.60;;;;;;4869565;55;21498;-42
2022/11/29 14:58:13;;;;;;;245.82;177.00;;;20.70;47.60;;;;;;4733385;55;20996;-42
2022/11/29 15:03:30;;;;;;;246.90;177.77;;;20.70;47.50;;;;;;4770443;55;21039;-46
2022/11/29 15:08:36;;;;;;;236.10;172.55;;;20.70;47.50;;;;;;4742605;55;20968;-43
2022/11/29 15:13:53;;;;;;;238.60;175.32;;;20.70;47.40;;;;;;4718332;55;21024;-39
2022/11/29 15:19:36;;;;;;;236.55;172.32;;;20.70;48.00;;;;;;4960260;55;21059;-43
2022/11/29 15:24:58;;;;;;;240.77;172.55;;;20.60;47.90;;;;;;4693930;59;21103;-44
2022/11/29 15:30:39;;;;;;;235.45;171.57;;;20.60;48.00;;;;;;4891327;55;20980;-50
2022/11/29 15:35:51;;;;;;;228.80;165.52;;;20.60;48.00;;;;;;4769139;55;20996;-45
2022/11/29 15:40:54;;;;;;;215.70;160.60;;;20.50;48.00;;;;;;4732738;55;21051;-39
2022/11/29 15:45:56;;;;;;;224.45;164.68;;;20.50;48.10;;;;;;4740174;55;21084;-43
2022/11/29 15:51:34;;;;;;;231.00;167.57;;;20.50;48.10;;;;;;4863432;55;21016;-46
2022/11/29 15:58:30;;;;;;;223.62;159.40;;;20.50;48.20;;;;;;4724778;55;20996;-43
2022/11/29 16:03:34;;;;;;;218.37;161.52;;;20.40;48.20;;;;;;4874589;55;21020;-42
2022/11/29 16:08:40;;;;;;;225.10;164.77;;;20.40;48.20;;;;;;4820356;55;21065;-45
2022/11/29 16:14:03;;;;;;;224.40;164.13;;;20.40;48.20;;;;;;4977798;55;21641;-39
2022/11/29 16:19:23;;;;;;;217.48;158.85;;;20.40;48.20;;;;;;4743226;55;21498;-39
2022/11/29 16:24:25;;;;;;;224.12;164.73;;;20.40;48.20;;;;;;4694480;59;21036;-46
2022/11/29 16:29:29;;;;;;;211.25;158.07;;;20.40;48.30;;;;;;5056835;55;20972;-43
2022/11/29 16:34:32;;;;;;;219.95;158.95;;;20.40;48.30;;;;;;4694940;59;21008;-43
2022/11/29 16:39:36;;;;;;;218.55;160.73;;;20.40;48.30;;;;;;4854483;55;21474;-37
2022/11/29 16:45:35;;;;;;;211.68;158.15;;;20.40;48.30;;;;;;4995904;55;21538;-45
2022/11/29 16:50:36;;;;;;;211.37;155.73;;;20.40;48.30;;;;;;4813462;55;21006;-47
2022/11/29 16:55:37;;;;;;;212.68;158.70;;;20.30;48.30;;;;;;4897304;55;21494;-43
2022/11/29 17:00:38;;;;;;;216.02;160.10;;;20.30;48.20;;;;;;4694411;59;21000;-42
2022/11/29 17:05:39;;;;;;;211.98;156.95;;;20.30;48.20;;;;;;4829524;55;21095;-46
2022/11/29 17:10:39;;;;;;;213.18;157.75;;;20.30;48.20;;;;;;4759635;55;21074;-37
2022/11/29 17:15:40;;;;;;;216.32;159.40;;;20.30;48.20;;;;;;4780160;55;21458;-50
2022/11/29 17:20:41;;;;;;;213.65;159.35;;;20.30;48.30;;;;;;4857916;55;21000;-45
2022/11/29 17:25:42;;;;;;;212.65;157.50;;;20.30;48.30;;;;;;5168947;55;21119;-47
2022/11/29 17:30:43;;;;;;;213.77;156.75;;;20.30;48.30;;;;;;5169258;55;21450;-47
2022/11/29 17:35:43;;;;;;;214.27;155.43;;;20.30;48.30;;;;;;4759023;55;21490;-46
2022/11/29 17:40:44;;;;;;;208.20;155.35;;;20.30;48.30;;;;;;4922056;55;20995;-45
2022/11/29 17:45:45;;;;;;;217.15;158.15;;;20.30;48.30;;;;;;4694297;59;21031;-46
2022/11/29 17:50:46;;;;;;;211.35;155.05;;;20.30;48.30;;;;;;4899281;55;21092;-47
2022/11/29 17:55:47;;;;;;;209.98;152.35;;;20.30;48.30;;;;;;4694520;59;21008;-39
2022/11/29 18:00:47;;;;;;;215.27;158.15;;;20.30;48.30;;;;;;4926485;55;20992;-43
2022/11/29 18:05:50;;;;;;;211.57;156.02;;;20.30;48.30;;;;;;4727791;55;21000;-43
2022/11/29 18:10:51;;;;;;;208.57;157.05;;;20.30;48.30;;;;;;4842700;55;21459;-40
2022/11/29 18:15:51;;;;;;;209.65;155.12;;;20.30;48.30;;;;;;4694555;59;21076;-42
2022/11/29 18:20:57;;;;;;;217.13;156.73;;;20.30;48.30;;;;;;4840059;55;21057;-46
2022/11/29 18:26:00;;;;;;;204.90;153.27;;;20.30;48.30;;;;;;4835395;55;21079;-45
2022/11/29 18:31:22;;;;;;;205.87;154.07;;;20.30;48.30;;;;;;4915020;55;21015;-46
2022/11/29 18:36:25;;;;;;;204.48;152.25;;;20.30;48.30;;;;;;4743677;55;21032;-45
2022/11/29 18:41:28;;;;;;;204.63;151.12;;;20.30;48.30;;;;;;4700879;55;21048;-46
2022/11/29 18:46:31;;;;;;;215.90;159.27;;;20.20;48.30;;;;;;4798139;55;21623;-39
2022/11/29 18:51:33;;;;;;;206.75;150.68;;;20.20;48.30;;;;;;5168876;55;21564;-40
2022/11/29 18:56:35;;;;;;;203.00;150.82;;;20.20;48.30;;;;;;4694588;59;21490;-41
2022/11/29 19:01:39;;;;;;;207.37;152.27;;;20.30;48.40;;;;;;5065659;55;21004;-47
2022/11/29 19:06:43;;;;;;;204.40;150.38;;;20.30;48.40;;;;;;4798776;55;21518;-45
2022/11/29 19:11:44;;;;;;;187.00;141.82;;;20.30;48.40;;;;;;4877325;55;21071;-36
2022/11/29 19:16:46;;;;;;;202.07;147.60;;;20.20;48.40;;;;;;4946470;55;21087;-44
2022/11/29 19:21:48;;;;;;;198.02;147.30;;;20.20;48.40;;;;;;4848264;55;21052;-40
2022/11/29 19:26:48;;;;;;;197.93;145.77;;;20.20;48.40;;;;;;4694080;56;21623;-39
2022/11/29 19:31:49;;;;;;;197.15;146.20;;;20.20;48.40;;;;;;4733908;55;21079;-44
2022/11/29 19:36:50;;;;;;;193.30;144.23;;;20.20;48.40;;;;;;4817560;55;21056;-48
2022/11/29 19:41:51;;;;;;;200.70;150.87;;;20.30;48.50;;;;;;5029608;55;20996;-44
2022/11/29 19:46:52;;;;;;;196.12;145.05;;;20.20;48.40;;;;;;4810403;55;21020;-47
2022/11/29 19:51:53;;;;;;;195.23;145.60;;;20.20;48.40;;;;;;5109657;55;21209;-42
2022/11/29 19:56:54;;;;;;;191.52;143.45;;;20.30;48.50;;;;;;4811141;55;21068;-42
2022/11/29 20:01:58;;;;;;;192.18;142.37;;;20.20;48.40;;;;;;4694379;56;21518;-41
2022/11/29 20:07:01;;;;;;;187.73;141.85;;;20.20;48.40;;;;;;5009146;55;21019;-47
2022/11/29 20:12:02;;;;;;;184.18;138.30;;;20.20;48.40;;;;;;4788055;55;21000;-46
2022/11/29 20:17:03;;;;;;;190.70;144.18;;;20.20;48.50;;;;;;4823261;55;21538;-50
2022/11/29 20:22:04;;;;;;;186.73;139.70;;;20.20;48.50;;;;;;4932549;55;21063;-47
2022/11/29 20:27:05;;;;;;;183.25;139.18;;;20.20;48.50;;;;;;4866716;55;21028;-43
2022/11/29 20:32:06;;;;;;;183.45;139.37;;;20.20;49.10;;;;;;4904889;55;21004;-47
2022/11/29 20:37:34;;;;;;;182.88;138.88;;;20.20;48.50;;;;;;4694505;59;21044;-42
2022/11/29 20:43:25;;;;;;;184.68;139.43;;;20.20;48.50;;;;;;4724388;55;21482;-42
2022/11/29 20:48:27;;;;;;;182.23;134.77;;;20.20;48.40;;;;;;4944366;55;21040;-46
2022/11/29 20:53:40;;;;;;;182.12;138.35;;;20.20;48.40;;;;;;4694679;59;21570;-40
2022/11/29 20:58:41;;;;;;;184.00;139.25;;;20.20;48.40;;;;;;4832500;55;21016;-46
2022/11/29 21:03:42;;;;;;;182.10;138.73;;;20.20;48.40;;;;;;4872464;55;21016;-45
2022/11/29 21:08:42;;;;;;;181.10;136.73;;;20.20;48.50;;;;;;4808208;55;21012;-41
2022/11/29 21:13:44;;;;;;;176.73;135.60;;;20.20;48.40;;;;;;4824933;55;21056;-46
2022/11/29 21:18:47;;;;;;;175.75;133.32;;;20.20;48.40;;;;;;4820895;55;21012;-43
2022/11/29 21:26:32;;;;;;;183.27;137.45;;;20.20;48.40;;;;;;4973375;55;20992;-47
2022/11/29 21:31:33;;;;;;;175.48;134.02;;;20.20;48.30;;;;;;4789129;55;21035;-39
2022/11/29 21:36:35;;;;;;;178.45;134.25;;;20.20;48.30;;;;;;4695526;59;21028;-35
2022/11/29 21:41:36;;;;;;;169.15;132.10;;;20.20;48.30;;;;;;4787629;55;20996;-39
2022/11/29 21:46:37;;;;;;;175.65;134.93;;;20.20;48.30;;;;;;4694580;59;21511;-31
2022/11/29 21:51:38;;;;;;;172.20;128.77;;;20.20;49.00;;;;;;5169384;55;21067;-35
2022/11/29 21:56:38;;;;;;;178.73;134.85;;;20.20;48.30;;;;;;4750030;55;21024;-39
2022/11/29 22:01:39;;;;;;;168.82;128.40;;;20.20;48.20;;;;;;4908644;55;21015;-35
2022/11/29 22:06:40;;;;;;;171.05;131.43;;;20.20;48.20;;;;;;4830082;55;21095;-44
2022/11/29 22:11:41;;;;;;;172.60;131.82;;;20.20;48.20;;;;;;4906479;55;21007;-36
2022/11/29 22:16:50;;;;;;;168.73;130.05;;;20.20;48.20;;;;;;4695167;57;21494;-40
2022/11/29 22:21:53;;;;;;;172.87;130.52;;;20.20;48.20;;;;;;5169531;55;21012;-30
2022/11/29 22:26:54;;;;;;;166.43;128.40;;;20.10;48.10;;;;;;5147037;55;21029;-38
2022/11/29 22:31:56;;;;;;;172.10;128.40;;;20.20;48.20;;;;;;4694942;59;21016;-48
2022/11/29 22:36:57;;;;;;;164.50;125.70;;;20.20;48.10;;;;;;4751809;55;21519;-41
2022/11/29 22:41:57;;;;;;;165.68;127.20;;;20.20;48.20;;;;;;4835919;55;21055;-47
2022/11/29 22:46:58;;;;;;;170.35;130.32;;;20.20;48.10;;;;;;4941150;55;21087;-45
2022/11/29 22:51:59;;;;;;;167.25;126.75;;;20.10;48.10;;;;;;4694238;59;21024;-44
2022/11/29 22:57:00;;;;;;;169.13;128.85;;;20.10;48.10;;;;;;4695136;59;21052;-45
2022/11/29 23:02:01;;;;;;;161.73;123.47;;;20.10;48.80;;;;;;5169629;55;21119;-35
2022/11/29 23:07:01;;;;;;;165.37;127.75;;;20.10;48.10;;;;;;5015293;55;21063;-30
2022/11/29 23:12:03;;;;;;;163.95;125.12;;;20.10;48.10;;;;;;5093494;55;21083;-45
2022/11/29 23:17:03;;;;;;;159.70;124.30;;;20.10;48.10;;;;;;4727781;55;20984;-40
2022/11/29 23:22:04;;;;;;;163.10;125.30;;;20.10;48.10;;;;;;4694889;59;21024;-34
2022/11/29 23:27:05;;;;;;;160.63;122.03;;;20.20;48.10;;;;;;5104828;55;21451;-37
2022/11/29 23:32:06;;;;;;;159.32;121.75;;;20.10;48.00;;;;;;4807184;55;21015;-30
2022/11/29 23:37:07;;;;;;;160.50;123.60;;;20.10;48.00;;;;;;4762057;55;21004;-30
2022/11/29 23:42:07;;;;;;;155.30;122.05;;;20.10;48.00;;;;;;4800175;55;20994;-30
2022/11/29 23:47:08;;;;;;;152.95;118.62;;;20.10;48.00;;;;;;4775127;55;21613;-37
2022/11/29 23:52:09;;;;;;;159.70;122.87;;;20.10;48.00;;;;;;5028237;55;21107;-33
2022/11/29 23:57:10;;;;;;;154.80;119.90;;;20.10;48.00;;;;;;4694891;59;21103;-38
